createdAt,value
2018-02-18T00:00:40.092Z,25.43
2018-02-18T00:03:07.663Z,23.33
2018-02-18T00:05:35.206Z,22.97
2018-02-18T00:08:02.777Z,19.67
2018-02-18T00:10:30.319Z,21.52
2018-02-18T00:12:57.883Z,21.52
2018-02-18T00:15:25.417Z,20.30
2018-02-18T00:17:53.743Z,21.53
2018-02-18T00:20:21.281Z,23.60
2018-02-18T00:22:48.853Z,23.10
2018-02-18T00:25:16.400Z,21.70
2018-02-18T00:27:43.969Z,21.23
2018-02-18T00:30:11.510Z,22.90
2018-02-18T00:32:39.071Z,18.67
2018-02-18T00:35:06.626Z,19.55
2018-02-18T00:37:34.197Z,21.30
2018-02-18T00:40:01.730Z,22.80
2018-02-18T00:42:30.063Z,24.02
2018-02-18T00:44:57.610Z,28.23
2018-02-18T00:47:25.177Z,29.83
2018-02-18T00:49:53.493Z,28.10
2018-02-18T00:52:21.828Z,24.85
2018-02-18T00:54:49.367Z,26.25
2018-02-18T00:57:16.934Z,22.15
2018-02-18T00:59:44.489Z,23.50
2018-02-18T01:02:12.061Z,26.40
2018-02-18T01:04:39.602Z,22.25
2018-02-18T01:07:07.166Z,23.40
2018-02-18T01:09:34.703Z,24.08
2018-02-18T01:12:03.030Z,22.52
2018-02-18T01:14:30.566Z,23.38
2018-02-18T01:16:58.122Z,22.25
2018-02-18T01:19:25.659Z,21.83
2018-02-18T01:21:54.000Z,23.48
2018-02-18T01:24:21.548Z,21.33
2018-02-18T01:26:49.114Z,21.05
2018-02-18T01:29:16.659Z,19.80
2018-02-18T01:31:44.226Z,21.12
2018-02-18T01:34:11.772Z,21.83
2018-02-18T01:36:39.337Z,21.70
2018-02-18T01:39:06.875Z,23.85
2018-02-18T01:41:34.443Z,26.55
2018-02-18T01:44:01.987Z,23.15
2018-02-18T01:46:29.561Z,24.00
2018-02-18T01:48:57.110Z,21.90
2018-02-18T01:51:24.674Z,23.45
2018-02-18T01:53:52.215Z,22.42
2018-02-18T01:56:20.551Z,25.55
2018-02-18T01:58:48.088Z,30.15
2018-02-18T02:01:15.652Z,29.65
2018-02-18T02:03:43.195Z,33.63
2018-02-18T02:06:10.734Z,33.40
2018-02-18T02:08:39.075Z,34.05
2018-02-18T02:11:06.619Z,32.97
2018-02-18T02:13:34.178Z,30.15
2018-02-18T02:16:01.713Z,30.10
2018-02-18T02:18:29.279Z,29.83
2018-02-18T02:20:56.825Z,28.73
2018-02-18T02:23:24.390Z,28.92
2018-02-18T02:25:51.930Z,30.92
2018-02-18T02:28:20.263Z,29.90
2018-02-18T02:30:47.807Z,32.20
2018-02-18T02:33:15.378Z,33.35
2018-02-18T02:35:42.920Z,31.30
2018-02-18T02:38:10.488Z,30.50
2018-02-18T02:40:38.030Z,31.45
2018-02-18T02:43:05.591Z,30.98
2018-02-18T02:45:33.143Z,31.77
2018-02-18T02:48:00.702Z,29.65
2018-02-18T02:50:28.243Z,32.85
2018-02-18T02:52:56.577Z,31.02
2018-02-18T02:55:24.124Z,32.65
2018-02-18T02:57:51.690Z,29.17
2018-02-18T03:00:19.241Z,27.80
2018-02-18T03:02:46.803Z,27.73
2018-02-18T03:05:14.345Z,33.00
2018-02-18T03:07:41.910Z,28.65
2018-02-18T03:10:09.464Z,28.50
2018-02-18T03:12:37.041Z,28.25
2018-02-18T03:15:04.582Z,30.10
2018-02-18T03:17:32.146Z,28.38
2018-02-18T03:19:59.686Z,28.50
2018-02-18T03:22:28.015Z,26.25
2018-02-18T03:24:55.546Z,24.40
2018-02-18T03:27:23.117Z,24.00
2018-02-18T03:29:50.658Z,23.67
2018-02-18T03:32:18.223Z,30.02
2018-02-18T03:34:45.763Z,28.20
2018-02-18T03:37:14.098Z,27.67
2018-02-18T03:39:43.150Z,26.37
2018-02-18T03:42:10.718Z,30.88
2018-02-18T03:44:38.262Z,31.00
2018-02-18T03:47:05.834Z,29.20
2018-02-18T03:49:33.380Z,29.45
2018-02-18T03:52:00.945Z,28.48
2018-02-18T03:54:28.487Z,28.92
2018-02-18T03:56:56.822Z,28.60
2018-02-18T03:59:24.368Z,32.05
2018-02-18T04:01:51.944Z,30.12
2018-02-18T04:04:19.477Z,28.98
2018-02-18T04:06:47.041Z,31.10
2018-02-18T04:09:14.582Z,28.55
2018-02-18T04:11:42.115Z,30.40
2018-02-18T04:14:10.442Z,31.58
2018-02-18T04:16:37.987Z,27.95
2018-02-18T04:19:05.550Z,31.23
2018-02-18T04:21:33.090Z,29.05
2018-02-18T04:24:00.655Z,31.60
2018-02-18T04:26:28.191Z,31.15
2018-02-18T04:28:56.531Z,34.50
2018-02-18T04:31:24.073Z,33.28
2018-02-18T04:33:51.639Z,32.28
2018-02-18T04:36:19.175Z,33.65
2018-02-18T04:38:46.729Z,33.92
2018-02-18T04:41:14.267Z,30.73
2018-02-18T04:43:42.602Z,32.97
2018-02-18T04:46:10.139Z,30.45
2018-02-18T04:48:37.703Z,30.15
2018-02-18T04:51:05.238Z,28.55
2018-02-18T04:53:33.567Z,28.60
2018-02-18T04:56:01.115Z,28.23
2018-02-18T04:58:28.678Z,27.98
2018-02-18T05:00:56.227Z,27.20
2018-02-18T05:03:23.794Z,29.10
2018-02-18T05:05:51.333Z,27.75
2018-02-18T05:08:18.907Z,26.42
2018-02-18T05:10:46.963Z,26.95
2018-02-18T05:13:14.529Z,25.55
2018-02-18T05:15:42.074Z,25.42
2018-02-18T05:18:09.634Z,24.80
2018-02-18T05:20:37.177Z,27.05
2018-02-18T05:23:05.508Z,26.70
2018-02-18T05:25:33.058Z,25.48
2018-02-18T05:28:00.619Z,26.75
2018-02-18T05:30:28.150Z,25.48
2018-02-18T05:32:55.721Z,25.85
2018-02-18T05:35:23.267Z,26.77
2018-02-18T05:37:50.827Z,23.73
2018-02-18T05:40:18.368Z,25.80
2018-02-18T05:42:45.940Z,21.65
2018-02-18T05:45:14.247Z,22.80
2018-02-18T05:47:41.816Z,23.80
2018-02-18T05:50:09.352Z,24.20
2018-02-18T05:52:36.927Z,24.45
2018-02-18T05:55:04.466Z,23.77
2018-02-18T05:57:32.035Z,25.23
2018-02-18T05:59:59.579Z,21.55
2018-02-18T06:02:27.153Z,22.45
2018-02-18T06:04:54.695Z,20.00
2018-02-18T06:07:23.030Z,20.83
2018-02-18T06:09:50.572Z,21.87
2018-02-18T06:12:18.115Z,23.62
2018-02-18T06:14:45.694Z,20.17
2018-02-18T06:17:13.237Z,20.15
2018-02-18T06:19:40.802Z,19.62
2018-02-18T06:22:08.903Z,19.90
2018-02-18T06:24:37.244Z,18.50
2018-02-18T06:27:04.784Z,20.30
2018-02-18T06:29:33.119Z,20.33
2018-02-18T06:32:00.659Z,21.80
2018-02-18T06:53:58.371Z,18.40
2018-02-18T06:56:25.911Z,21.17
2018-02-18T06:58:53.478Z,19.10
2018-02-18T07:01:21.017Z,23.40
2018-02-18T07:03:48.600Z,23.50
2018-02-18T07:06:16.141Z,22.10
2018-02-18T07:08:43.698Z,23.75
2018-02-18T07:11:11.235Z,21.60
2018-02-18T07:13:39.567Z,20.48
2018-02-18T07:16:07.107Z,20.52
2018-02-18T07:18:34.665Z,21.25
2018-02-18T07:21:02.211Z,20.08
2018-02-18T07:23:29.782Z,20.83
2018-02-18T07:25:57.322Z,23.12
2018-02-18T07:28:24.890Z,23.23
2018-02-18T07:30:52.430Z,22.75
2018-02-18T07:33:20.758Z,22.20
2018-02-18T07:35:48.296Z,24.73
2018-02-18T07:38:15.859Z,24.73
2018-02-18T07:40:43.399Z,23.75
2018-02-18T07:43:10.963Z,21.73
2018-02-18T07:45:38.510Z,22.25
2018-02-18T07:48:06.837Z,21.07
2018-02-18T07:50:34.380Z,22.85
2018-02-18T07:53:01.947Z,22.73
2018-02-18T07:55:29.499Z,21.77
2018-02-18T07:57:57.143Z,23.38
2018-02-18T08:00:24.690Z,22.60
2018-02-18T08:02:52.253Z,24.55
2018-02-18T08:05:19.802Z,22.67
2018-02-18T08:07:48.145Z,25.40
2018-02-18T08:10:15.699Z,27.60
2018-02-18T08:12:43.243Z,27.60
2018-02-18T08:15:10.818Z,28.90
2018-02-18T08:17:38.422Z,29.35
2018-02-18T08:20:05.955Z,31.20
2018-02-18T08:22:33.512Z,30.15
2018-02-18T08:25:01.078Z,32.70
2018-02-18T08:27:28.630Z,32.95
2018-02-18T08:29:56.198Z,36.20
2018-02-18T08:32:23.737Z,34.10
2018-02-18T08:34:51.311Z,34.08
2018-02-18T08:37:18.859Z,33.28
2018-02-18T08:39:46.429Z,31.12
2018-02-18T08:42:13.961Z,32.53
2018-02-18T08:44:41.526Z,35.40
2018-02-18T08:47:10.102Z,32.33
2018-02-18T08:49:37.671Z,29.95
2018-02-18T08:52:05.221Z,32.35
2018-02-18T08:54:32.788Z,33.60
2018-02-18T08:57:00.334Z,31.30
2018-02-18T08:59:27.895Z,35.80
2018-02-18T09:01:55.452Z,33.47
2018-02-18T09:04:23.016Z,34.77
2018-02-18T09:06:50.550Z,32.60
2018-02-18T09:09:18.878Z,35.23
2018-02-18T09:11:46.421Z,35.80
2018-02-18T09:14:14.218Z,36.83
2018-02-18T09:16:41.971Z,36.97
2018-02-18T09:19:09.534Z,35.77
2018-02-18T09:21:37.071Z,36.10
2018-02-18T09:24:04.795Z,36.53
2018-02-18T09:26:32.383Z,41.53
2018-02-18T09:28:59.939Z,41.03
2018-02-18T09:31:27.491Z,38.90
2018-02-18T09:33:55.050Z,41.60
2018-02-18T09:36:22.583Z,41.67
2018-02-18T09:38:50.912Z,37.83
2018-02-18T09:41:18.451Z,38.17
2018-02-18T09:43:46.049Z,34.63
2018-02-18T09:46:13.595Z,35.87
2018-02-18T09:48:41.151Z,32.80
2018-02-18T09:51:08.719Z,32.43
2018-02-18T09:53:36.288Z,35.40
2018-02-18T09:56:03.822Z,33.80
2018-02-18T09:58:31.379Z,32.88
2018-02-18T10:00:58.906Z,32.97
2018-02-18T10:03:27.264Z,31.33
2018-02-18T10:05:54.802Z,31.47
2018-02-18T10:08:22.414Z,29.83
2018-02-18T10:10:50.712Z,33.00
2018-02-18T10:13:18.390Z,30.17
2018-02-18T10:15:45.929Z,30.20
2018-02-18T10:18:13.487Z,28.07
2018-02-18T10:20:41.043Z,29.17
2018-02-18T10:23:08.583Z,29.30
2018-02-18T10:25:36.912Z,27.20
2018-02-18T10:28:04.496Z,25.60
2018-02-18T10:30:32.077Z,27.00
2018-02-18T10:33:00.391Z,27.40
2018-02-18T10:35:27.960Z,25.83
2018-02-18T10:37:55.757Z,26.40
2018-02-18T10:40:26.691Z,25.93
2018-02-18T10:42:54.252Z,23.60
2018-02-18T10:45:21.962Z,26.70
2018-02-18T10:47:50.278Z,25.20
2018-02-18T10:50:17.844Z,23.90
2018-02-18T10:52:45.374Z,23.90
2018-02-18T10:55:12.938Z,24.30
2018-02-18T10:57:40.589Z,23.20
2018-02-18T11:00:08.152Z,22.03
2018-02-18T11:05:29.019Z,22.40
2018-02-18T11:07:56.557Z,23.60
2018-02-18T11:10:24.106Z,23.40
2018-02-18T11:12:51.643Z,24.00
2018-02-18T11:15:20.062Z,24.60
2018-02-18T11:17:47.639Z,22.83
2018-02-18T11:20:15.196Z,23.80
2018-02-18T11:22:43.504Z,24.13
2018-02-18T11:25:11.831Z,23.93
2018-02-18T11:27:39.367Z,23.50
2018-02-18T11:30:06.930Z,24.20
2018-02-18T11:32:34.460Z,23.73
2018-02-18T11:35:02.015Z,22.90
2018-02-18T11:37:29.557Z,21.57
2018-02-18T11:40:06.104Z,23.50
2018-02-18T11:42:33.642Z,21.87
2018-02-18T11:45:01.200Z,22.87
2018-02-18T11:47:28.734Z,22.80
2018-02-18T11:49:56.313Z,21.40
2018-02-18T11:52:23.955Z,21.47
2018-02-18T11:54:51.530Z,21.90
2018-02-18T11:57:19.832Z,21.60
2018-02-18T11:59:47.384Z,23.13
2018-02-18T12:02:14.923Z,20.43
2018-02-18T12:04:43.238Z,21.83
2018-02-18T12:07:10.770Z,21.87
2018-02-18T12:09:38.328Z,20.37
2018-02-18T12:12:05.877Z,19.90
2018-02-18T12:14:34.203Z,18.87
2018-02-18T12:17:01.750Z,20.90
2018-02-18T12:19:29.319Z,20.27
2018-02-18T12:21:56.847Z,21.30
2018-02-18T12:24:24.499Z,23.13
2018-02-18T12:26:52.794Z,23.27
2018-02-18T12:29:20.360Z,21.70
2018-02-18T12:31:47.907Z,23.87
2018-02-18T12:34:15.512Z,25.53
2018-02-18T12:36:43.018Z,24.63
2018-02-18T12:39:10.575Z,25.00
2018-02-18T12:41:38.880Z,25.33
2018-02-18T12:44:06.451Z,27.23
2018-02-18T12:46:33.982Z,24.90
2018-02-18T12:49:01.546Z,26.43
2018-02-18T12:51:29.083Z,23.40
2018-02-18T12:53:57.419Z,24.37
2018-02-18T12:56:24.951Z,26.00
2018-02-18T12:58:52.488Z,24.60
2018-02-18T13:01:20.052Z,24.73
2018-02-18T13:03:47.595Z,25.17
2018-02-18T13:06:16.150Z,23.77
2018-02-18T13:08:44.227Z,24.87
2018-02-18T13:11:12.961Z,23.63
2018-02-18T13:13:41.416Z,24.50
2018-02-18T13:16:09.831Z,23.20
2018-02-18T13:18:37.471Z,23.07
2018-02-18T13:21:05.190Z,23.83
2018-02-18T13:23:32.859Z,25.33
2018-02-18T13:26:00.435Z,23.30
2018-02-18T13:28:27.967Z,23.80
2018-02-18T13:30:56.295Z,23.93
2018-02-18T13:33:24.595Z,25.03
2018-02-18T13:35:52.150Z,23.30
2018-02-18T13:38:19.682Z,23.10
2018-02-18T13:40:48.007Z,23.13
2018-02-18T13:43:15.547Z,25.77
2018-02-18T13:45:43.113Z,23.70
2018-02-18T13:48:10.641Z,23.33
2018-02-18T13:50:38.976Z,24.50
2018-02-18T13:53:06.512Z,22.57
2018-02-18T13:55:34.067Z,21.47
2018-02-18T13:58:01.602Z,19.00
2018-02-18T14:00:29.927Z,17.30
2018-02-18T14:02:57.467Z,17.90
2018-02-18T14:05:25.048Z,19.47
2018-02-18T14:07:52.581Z,18.37
2018-02-18T14:10:20.137Z,19.77
2018-02-18T14:12:47.671Z,19.00
2018-02-18T14:15:16.006Z,18.80
2018-02-18T14:17:43.552Z,19.30
2018-02-18T14:20:11.125Z,17.60
2018-02-18T14:22:38.662Z,15.50
2018-02-18T14:25:06.219Z,17.23
2018-02-18T14:27:33.763Z,17.80
2018-02-18T14:30:01.331Z,17.87
2018-02-18T14:32:28.863Z,17.30
2018-02-18T14:34:56.443Z,17.63
2018-02-18T14:37:24.044Z,15.60
2018-02-18T14:39:51.595Z,17.60
2018-02-18T14:45:38.218Z,16.93
2018-02-18T14:48:17.584Z,15.17
2018-02-18T14:50:57.112Z,17.50
2018-02-18T14:53:37.183Z,17.93
2018-02-18T14:59:15.463Z,18.00
2018-02-18T15:01:43.043Z,16.70
2018-02-18T15:04:10.574Z,18.07
2018-02-18T15:06:38.194Z,18.00
2018-02-18T15:09:05.734Z,17.80
2018-02-18T15:11:33.306Z,16.97
2018-02-18T15:14:00.840Z,16.73
2018-02-18T15:16:28.396Z,17.60
2018-02-18T15:18:55.930Z,19.13
2018-02-18T15:21:24.255Z,16.30
2018-02-18T15:23:51.792Z,17.67
2018-02-18T15:26:19.355Z,16.90
2018-02-18T15:28:46.967Z,15.83
2018-02-18T15:31:14.528Z,16.13
2018-02-18T15:33:42.107Z,18.77
2018-02-18T15:36:10.456Z,16.47
2018-02-18T15:38:37.990Z,17.67
2018-02-18T15:41:05.556Z,17.37
2018-02-18T15:43:33.159Z,15.23
2018-02-18T15:46:01.566Z,16.10
2018-02-18T15:48:29.094Z,15.83
2018-02-18T15:50:57.474Z,13.63
2018-02-18T15:53:25.812Z,16.70
2018-02-18T15:55:53.391Z,17.00
2018-02-18T15:58:20.926Z,15.37
2018-02-18T16:00:48.482Z,18.30
2018-02-18T16:03:16.041Z,15.63
2018-02-18T16:05:43.637Z,19.10
2018-02-18T16:08:11.182Z,19.47
2018-02-18T16:10:38.747Z,16.93
2018-02-18T16:13:07.047Z,18.30
2018-02-18T16:15:35.371Z,17.47
2018-02-18T16:18:02.902Z,16.87
2018-02-18T16:20:30.454Z,16.93
2018-02-18T16:22:58.748Z,18.70
2018-02-18T16:25:26.324Z,16.07
2018-02-18T16:27:53.867Z,17.90
2018-02-18T16:30:21.409Z,15.87
2018-02-18T16:32:49.734Z,17.60
2018-02-18T16:35:17.260Z,16.97
2018-02-18T16:37:44.820Z,17.53
2018-02-18T16:40:12.355Z,15.60
2018-02-18T16:42:40.687Z,15.77
2018-02-18T16:45:08.226Z,15.70
2018-02-18T16:47:35.786Z,16.40
2018-02-18T16:50:03.332Z,13.70
2018-02-18T16:52:30.889Z,15.93
2018-02-18T16:54:59.182Z,15.10
2018-02-18T16:57:26.740Z,16.07
2018-02-18T16:59:54.296Z,15.27
2018-02-18T17:02:21.858Z,15.07
2018-02-18T17:04:49.386Z,16.27
2018-02-18T17:07:16.944Z,18.80
2018-02-18T17:09:44.475Z,19.27
2018-02-18T17:12:12.035Z,16.53
2018-02-18T17:14:39.563Z,16.07
2018-02-18T17:17:07.123Z,18.40
2018-02-18T17:19:34.654Z,14.73
2018-02-18T17:22:02.974Z,14.63
2018-02-18T17:24:30.511Z,15.40
2018-02-18T17:26:58.071Z,16.43
2018-02-18T17:29:25.607Z,16.60
2018-02-18T17:31:53.936Z,17.40
2018-02-18T17:34:21.469Z,17.40
2018-02-18T17:36:49.027Z,18.33
2018-02-18T17:39:16.558Z,16.70
2018-02-18T17:41:44.887Z,15.67
2018-02-18T17:44:12.418Z,17.43
2018-02-18T17:46:40.043Z,17.70
2018-02-18T17:49:07.587Z,15.07
2018-02-18T17:51:35.228Z,16.90
2018-02-18T17:54:02.970Z,17.20
2018-02-18T17:56:31.345Z,16.10
2018-02-18T17:58:58.882Z,17.10
2018-02-18T18:01:27.211Z,18.80
2018-02-18T18:03:54.748Z,19.00
2018-02-18T18:06:22.311Z,20.30
2018-02-18T18:08:49.850Z,22.00
2018-02-18T18:11:18.183Z,20.10
2018-02-18T18:13:45.725Z,16.90
2018-02-18T18:16:13.290Z,20.03
2018-02-18T18:18:41.598Z,18.43
2018-02-18T18:21:09.163Z,17.50
2018-02-18T18:23:36.695Z,21.53
2018-02-18T18:26:04.255Z,16.00
2018-02-18T18:28:31.792Z,18.50
2018-02-18T18:30:59.345Z,22.50
2018-02-18T18:33:26.882Z,19.03
2018-02-18T18:35:55.206Z,21.60
2018-02-18T18:38:22.739Z,21.67
2018-02-18T18:40:50.307Z,19.93
2018-02-18T18:43:17.868Z,22.20
2018-02-18T18:45:45.412Z,20.80
2018-02-18T18:48:12.972Z,21.67
2018-02-18T18:50:40.507Z,22.83
2018-02-18T18:53:08.839Z,25.83
2018-02-18T18:55:36.374Z,21.57
2018-02-18T18:58:03.952Z,22.50
2018-02-18T19:00:31.523Z,22.73
2018-02-18T19:02:59.087Z,20.87
2018-02-18T19:05:26.638Z,25.53
2018-02-18T19:07:54.968Z,23.63
2018-02-18T19:10:23.284Z,20.97
2018-02-18T19:12:50.853Z,23.97
2018-02-18T19:15:18.559Z,20.83
2018-02-18T19:17:46.902Z,23.95
2018-02-18T19:20:14.437Z,24.33
2018-02-18T19:22:42.767Z,22.90
2018-02-18T19:25:10.323Z,26.15
2018-02-18T19:27:37.881Z,24.80
2018-02-18T19:30:05.439Z,23.50
2018-02-18T19:32:33.018Z,24.07
2018-02-18T19:35:01.331Z,25.20
2018-02-18T19:37:28.900Z,22.43
2018-02-18T19:39:56.441Z,25.60
2018-02-18T19:42:23.999Z,27.80
2018-02-18T19:44:51.546Z,25.20
2018-02-18T19:47:19.875Z,25.57
2018-02-18T19:49:47.411Z,24.30
2018-02-18T19:52:14.978Z,25.90
2018-02-18T19:54:42.553Z,28.83
2018-02-18T19:57:10.100Z,26.10
2018-02-18T19:59:37.638Z,26.60
2018-02-18T20:02:05.202Z,28.70
2018-02-18T20:04:32.739Z,27.80
2018-02-18T20:07:01.075Z,25.23
2018-02-18T20:09:28.627Z,29.77
2018-02-18T20:11:56.200Z,25.33
2018-02-18T20:14:23.940Z,25.85
2018-02-18T20:16:51.490Z,30.10
2018-02-18T20:19:19.027Z,26.33
2018-02-18T20:21:47.361Z,26.70
2018-02-18T20:24:14.913Z,29.83
2018-02-18T20:26:42.482Z,25.23
2018-02-18T20:29:10.035Z,25.77
2018-02-18T20:31:37.608Z,23.42
2018-02-18T20:34:05.158Z,24.63
2018-02-18T20:36:34.235Z,25.13
2018-02-18T20:39:01.788Z,23.77
2018-02-18T20:41:29.359Z,26.97
2018-02-18T20:43:56.902Z,25.98
2018-02-18T20:46:24.471Z,23.67
2018-02-18T20:48:52.017Z,21.35
2018-02-18T20:51:19.577Z,23.30
2018-02-18T20:53:47.363Z,22.52
2018-02-18T20:56:14.952Z,22.57
2018-02-18T20:58:42.520Z,23.40
2018-02-18T21:01:10.832Z,20.17
2018-02-18T21:03:38.467Z,21.20
2018-02-18T21:06:06.098Z,21.27
2018-02-18T21:08:33.671Z,20.15
2018-02-18T21:11:01.717Z,23.58
2018-02-18T21:13:30.110Z,21.40
2018-02-18T21:15:58.407Z,22.40
2018-02-18T21:18:25.983Z,23.33
2018-02-18T21:20:54.298Z,22.00
2018-02-18T21:23:21.943Z,20.90
2018-02-18T21:25:49.853Z,22.53
2018-02-18T21:28:18.236Z,20.30
2018-02-18T21:30:45.991Z,20.23
2018-02-18T21:33:14.498Z,23.52
2018-02-18T21:35:42.035Z,23.87
2018-02-18T21:38:09.650Z,22.77
2018-02-18T21:40:37.190Z,22.30
2018-02-18T21:43:05.523Z,21.12
2018-02-18T21:45:33.075Z,22.30
2018-02-18T21:48:00.639Z,22.60
2018-02-18T21:50:28.185Z,18.52
2018-02-18T21:52:55.774Z,21.00
2018-02-18T21:55:23.331Z,21.45
2018-02-18T21:57:51.668Z,19.83
2018-02-18T22:00:19.249Z,22.30
2018-02-18T22:02:46.816Z,20.10
2018-02-18T22:05:14.351Z,20.30
2018-02-18T22:07:41.913Z,22.27
2018-02-18T22:10:09.451Z,21.37
2018-02-18T22:12:37.819Z,21.23
2018-02-18T22:15:06.142Z,21.58
2018-02-18T22:17:33.875Z,20.13
2018-02-18T22:20:02.188Z,21.77
2018-02-18T22:22:29.784Z,20.65
2018-02-18T22:24:58.126Z,20.35
2018-02-18T22:27:25.687Z,19.27
2018-02-18T22:29:53.226Z,20.27
2018-02-18T22:32:20.799Z,20.98
2018-02-18T22:34:48.445Z,19.23
2018-02-18T22:37:16.010Z,17.83
2018-02-18T22:39:43.672Z,19.77
2018-02-18T22:42:11.234Z,20.20
2018-02-18T22:44:38.772Z,21.43
2018-02-18T22:47:07.108Z,19.83
2018-02-18T22:49:34.650Z,17.57
2018-02-18T22:52:02.211Z,19.50
2018-02-18T22:54:29.754Z,20.50
2018-02-18T22:56:57.356Z,19.77
2018-02-18T22:59:24.905Z,17.90
2018-02-18T23:01:52.470Z,17.93
2018-02-18T23:04:20.011Z,19.15
2018-02-18T23:06:47.547Z,18.87
2018-02-18T23:09:15.113Z,19.87
2018-02-18T23:11:42.654Z,19.40
2018-02-18T23:14:10.989Z,17.87
2018-02-18T23:16:38.529Z,20.25
2018-02-18T23:19:06.090Z,18.93
2018-02-18T23:21:33.678Z,19.10
2018-02-18T23:24:01.246Z,19.30
2018-02-18T23:26:28.793Z,19.40
2018-02-18T23:28:56.353Z,19.80
2018-02-18T23:31:24.049Z,19.23
2018-02-18T23:33:51.642Z,19.45
2018-02-18T23:36:19.393Z,19.12
2018-02-18T23:38:47.037Z,18.85
2018-02-18T23:41:15.341Z,22.67
2018-02-18T23:43:42.944Z,20.70
2018-02-18T23:46:10.502Z,19.33
2018-02-18T23:48:38.072Z,19.80
2018-02-18T23:51:05.610Z,20.03
2018-02-18T23:53:33.186Z,20.07
2018-02-18T23:56:00.817Z,20.23
2018-02-18T23:58:28.410Z,21.90
